sensor_id;sensor_type;location;lat;lon;timestamp;P1;durP1;ratioP1;P2;durP2;ratioP2
809;SDS011;387;48.772;9.186;2023-05-07T00:02:02;6.20;;;3.50;;
809;SDS011;387;48.772;9.186;2023-05-07T00:04:28;4.90;;;3.53;;
809;SDS011;387;48.772;9.186;2023-05-07T00:07:00;4.47;;;3.30;;
809;SDS011;387;48.772;9.186;2023-05-07T00:09:26;4.43;;;3.40;;
809;SDS011;387;48.772;9.186;2023-05-07T00:11:52;6.13;;;3.73;;
809;SDS011;387;48.772;9.186;2023-05-07T00:14:18;5.47;;;3.30;;
809;SDS011;387;48.772;9.186;2023-05-07T00:16:43;7.40;;;4.17;;
809;SDS011;387;48.772;9.186;2023-05-07T00:19:09;8.73;;;4.07;;
809;SDS011;387;48.772;9.186;2023-05-07T00:21:35;5.63;;;3.50;;
809;SDS011;387;48.772;9.186;2023-05-07T00:24:00;4.40;;;3.23;;
809;SDS011;387;48.772;9.186;2023-05-07T00:26:26;5.53;;;3.30;;
809;SDS011;387;48.772;9.186;2023-05-07T00:28:52;5.80;;;3.77;;
809;SDS011;387;48.772;9.186;2023-05-07T00:31:17;5.73;;;3.30;;
809;SDS011;387;48.772;9.186;2023-05-07T00:33:43;8.30;;;4.20;;
809;SDS011;387;48.772;9.186;2023-05-07T00:36:08;6.10;;;4.20;;
809;SDS011;387;48.772;9.186;2023-05-07T00:38:34;5.90;;;4.10;;
809;SDS011;387;48.772;9.186;2023-05-07T00:41:00;5.57;;;4.07;;
809;SDS011;387;48.772;9.186;2023-05-07T00:43:27;5.93;;;3.97;;
809;SDS011;387;48.772;9.186;2023-05-07T00:45:53;6.50;;;3.97;;
809;SDS011;387;48.772;9.186;2023-05-07T00:48:19;4.63;;;3.40;;
809;SDS011;387;48.772;9.186;2023-05-07T00:50:45;4.60;;;3.70;;
809;SDS011;387;48.772;9.186;2023-05-07T00:53:12;6.10;;;4.00;;
809;SDS011;387;48.772;9.186;2023-05-07T00:55:38;5.27;;;3.10;;
809;SDS011;387;48.772;9.186;2023-05-07T00:58:04;5.00;;;3.30;;
809;SDS011;387;48.772;9.186;2023-05-07T01:00:30;5.97;;;3.53;;
809;SDS011;387;48.772;9.186;2023-05-07T01:02:56;6.90;;;3.93;;
809;SDS011;387;48.772;9.186;2023-05-07T01:05:22;6.23;;;3.67;;
809;SDS011;387;48.772;9.186;2023-05-07T01:07:49;4.40;;;3.83;;
809;SDS011;387;48.772;9.186;2023-05-07T01:10:15;5.50;;;4.30;;
809;SDS011;387;48.772;9.186;2023-05-07T01:12:42;9.20;;;4.50;;
809;SDS011;387;48.772;9.186;2023-05-07T01:15:09;6.93;;;4.30;;
809;SDS011;387;48.772;9.186;2023-05-07T01:17:35;7.80;;;5.10;;
809;SDS011;387;48.772;9.186;2023-05-07T01:20:03;27.43;;;5.33;;
809;SDS011;387;48.772;9.186;2023-05-07T01:22:33;7.53;;;4.90;;
809;SDS011;387;48.772;9.186;2023-05-07T01:25:01;7.50;;;5.67;;
809;SDS011;387;48.772;9.186;2023-05-07T01:27:28;7.40;;;5.20;;
809;SDS011;387;48.772;9.186;2023-05-07T01:29:53;7.53;;;4.60;;
809;SDS011;387;48.772;9.186;2023-05-07T01:32:21;6.20;;;4.50;;
809;SDS011;387;48.772;9.186;2023-05-07T01:35:01;6.67;;;4.70;;
809;SDS011;387;48.772;9.186;2023-05-07T01:37:30;7.97;;;4.73;;
809;SDS011;387;48.772;9.186;2023-05-07T01:39:55;5.80;;;4.20;;
809;SDS011;387;48.772;9.186;2023-05-07T01:42:22;5.63;;;3.90;;
809;SDS011;387;48.772;9.186;2023-05-07T01:44:48;10.20;;;5.00;;
809;SDS011;387;48.772;9.186;2023-05-07T01:47:14;7.03;;;5.00;;
809;SDS011;387;48.772;9.186;2023-05-07T01:49:41;13.00;;;5.17;;
809;SDS011;387;48.772;9.186;2023-05-07T01:52:07;6.07;;;4.00;;
809;SDS011;387;48.772;9.186;2023-05-07T01:54:34;6.97;;;4.53;;
809;SDS011;387;48.772;9.186;2023-05-07T01:57:00;13.00;;;4.90;;
809;SDS011;387;48.772;9.186;2023-05-07T01:59:26;8.07;;;4.57;;
809;SDS011;387;48.772;9.186;2023-05-07T02:01:52;12.27;;;5.53;;
809;SDS011;387;48.772;9.186;2023-05-07T02:04:17;8.13;;;3.90;;
809;SDS011;387;48.772;9.186;2023-05-07T02:06:43;5.10;;;4.20;;
809;SDS011;387;48.772;9.186;2023-05-07T02:09:09;5.87;;;4.23;;
809;SDS011;387;48.772;9.186;2023-05-07T02:11:35;6.03;;;3.43;;
809;SDS011;387;48.772;9.186;2023-05-07T02:14:00;5.73;;;4.10;;
809;SDS011;387;48.772;9.186;2023-05-07T02:16:26;5.80;;;4.30;;
809;SDS011;387;48.772;9.186;2023-05-07T02:18:51;7.43;;;4.80;;
809;SDS011;387;48.772;9.186;2023-05-07T02:21:17;7.47;;;4.70;;
809;SDS011;387;48.772;9.186;2023-05-07T02:23:43;5.13;;;4.13;;
809;SDS011;387;48.772;9.186;2023-05-07T02:26:08;6.23;;;4.63;;
809;SDS011;387;48.772;9.186;2023-05-07T02:28:36;7.97;;;5.30;;
809;SDS011;387;48.772;9.186;2023-05-07T02:31:04;8.13;;;4.77;;
809;SDS011;387;48.772;9.186;2023-05-07T02:33:30;7.80;;;4.73;;
809;SDS011;387;48.772;9.186;2023-05-07T02:35:56;7.03;;;5.10;;
809;SDS011;387;48.772;9.186;2023-05-07T02:38:22;6.20;;;4.60;;
809;SDS011;387;48.772;9.186;2023-05-07T02:40:48;6.90;;;4.00;;
809;SDS011;387;48.772;9.186;2023-05-07T02:43:13;6.10;;;4.20;;
809;SDS011;387;48.772;9.186;2023-05-07T02:45:39;12.43;;;4.60;;
809;SDS011;387;48.772;9.186;2023-05-07T02:48:05;7.63;;;5.00;;
809;SDS011;387;48.772;9.186;2023-05-07T02:50:31;9.07;;;5.20;;
809;SDS011;387;48.772;9.186;2023-05-07T02:52:57;11.60;;;5.10;;
809;SDS011;387;48.772;9.186;2023-05-07T02:55:23;11.63;;;5.10;;
809;SDS011;387;48.772;9.186;2023-05-07T02:57:49;7.73;;;4.53;;
809;SDS011;387;48.772;9.186;2023-05-07T03:00:15;8.17;;;5.10;;
809;SDS011;387;48.772;9.186;2023-05-07T03:02:43;9.13;;;4.60;;
809;SDS011;387;48.772;9.186;2023-05-07T03:05:11;7.00;;;4.83;;
809;SDS011;387;48.772;9.186;2023-05-07T03:07:37;10.37;;;5.60;;
809;SDS011;387;48.772;9.186;2023-05-07T03:10:03;8.27;;;5.10;;
809;SDS011;387;48.772;9.186;2023-05-07T03:12:30;8.67;;;5.33;;
809;SDS011;387;48.772;9.186;2023-05-07T03:14:56;7.97;;;4.93;;
809;SDS011;387;48.772;9.186;2023-05-07T03:17:22;8.27;;;5.47;;
809;SDS011;387;48.772;9.186;2023-05-07T03:19:47;8.67;;;4.53;;
809;SDS011;387;48.772;9.186;2023-05-07T03:22:13;5.90;;;4.17;;
809;SDS011;387;48.772;9.186;2023-05-07T03:24:39;6.57;;;4.00;;
809;SDS011;387;48.772;9.186;2023-05-07T03:27:05;4.83;;;4.30;;
809;SDS011;387;48.772;9.186;2023-05-07T03:29:30;7.47;;;4.57;;
809;SDS011;387;48.772;9.186;2023-05-07T03:31:56;7.80;;;5.50;;
809;SDS011;387;48.772;9.186;2023-05-07T03:34:21;9.20;;;5.30;;
809;SDS011;387;48.772;9.186;2023-05-07T03:36:50;6.03;;;4.20;;
809;SDS011;387;48.772;9.186;2023-05-07T03:39:16;7.30;;;4.60;;
809;SDS011;387;48.772;9.186;2023-05-07T03:41:41;11.00;;;5.13;;
809;SDS011;387;48.772;9.186;2023-05-07T03:44:07;8.50;;;4.97;;
809;SDS011;387;48.772;9.186;2023-05-07T03:46:33;8.43;;;4.47;;
809;SDS011;387;48.772;9.186;2023-05-07T03:48:59;9.33;;;5.00;;
809;SDS011;387;48.772;9.186;2023-05-07T03:51:25;6.97;;;4.20;;
809;SDS011;387;48.772;9.186;2023-05-07T03:53:51;5.03;;;4.00;;
809;SDS011;387;48.772;9.186;2023-05-07T03:56:19;5.03;;;3.63;;
809;SDS011;387;48.772;9.186;2023-05-07T03:58:46;5.37;;;3.93;;
809;SDS011;387;48.772;9.186;2023-05-07T04:01:12;6.33;;;3.70;;
809;SDS011;387;48.772;9.186;2023-05-07T04:03:38;4.73;;;3.67;;
809;SDS011;387;48.772;9.186;2023-05-07T04:06:03;8.07;;;4.40;;
809;SDS011;387;48.772;9.186;2023-05-07T04:08:29;8.90;;;5.20;;
809;SDS011;387;48.772;9.186;2023-05-07T04:10:58;6.57;;;5.23;;
809;SDS011;387;48.772;9.186;2023-05-07T04:13:24;7.57;;;4.97;;
809;SDS011;387;48.772;9.186;2023-05-07T04:15:50;8.20;;;5.27;;
809;SDS011;387;48.772;9.186;2023-05-07T04:18:16;8.97;;;5.40;;
809;SDS011;387;48.772;9.186;2023-05-07T04:20:42;6.43;;;4.77;;
809;SDS011;387;48.772;9.186;2023-05-07T04:23:08;8.90;;;5.23;;
809;SDS011;387;48.772;9.186;2023-05-07T04:25:33;9.57;;;4.93;;
809;SDS011;387;48.772;9.186;2023-05-07T04:27:59;6.97;;;5.30;;
809;SDS011;387;48.772;9.186;2023-05-07T04:30:25;6.70;;;4.70;;
809;SDS011;387;48.772;9.186;2023-05-07T04:32:51;5.07;;;3.57;;
809;SDS011;387;48.772;9.186;2023-05-07T04:35:17;5.73;;;3.83;;
809;SDS011;387;48.772;9.186;2023-05-07T04:37:43;6.67;;;4.07;;
809;SDS011;387;48.772;9.186;2023-05-07T04:40:09;4.97;;;3.63;;
809;SDS011;387;48.772;9.186;2023-05-07T04:42:35;6.47;;;4.27;;
809;SDS011;387;48.772;9.186;2023-05-07T04:45:01;7.13;;;4.30;;
809;SDS011;387;48.772;9.186;2023-05-07T04:47:27;6.80;;;4.40;;
809;SDS011;387;48.772;9.186;2023-05-07T04:49:52;6.23;;;4.00;;
809;SDS011;387;48.772;9.186;2023-05-07T04:52:18;8.30;;;5.23;;
809;SDS011;387;48.772;9.186;2023-05-07T04:54:44;7.80;;;4.27;;
809;SDS011;387;48.772;9.186;2023-05-07T04:57:09;7.30;;;5.40;;
809;SDS011;387;48.772;9.186;2023-05-07T04:59:35;10.07;;;5.50;;
809;SDS011;387;48.772;9.186;2023-05-07T05:02:01;7.53;;;5.40;;
809;SDS011;387;48.772;9.186;2023-05-07T05:04:26;8.73;;;5.00;;
809;SDS011;387;48.772;9.186;2023-05-07T05:06:52;6.90;;;4.50;;
809;SDS011;387;48.772;9.186;2023-05-07T05:09:18;8.00;;;4.33;;
809;SDS011;387;48.772;9.186;2023-05-07T05:11:43;6.10;;;4.80;;
809;SDS011;387;48.772;9.186;2023-05-07T05:14:09;10.53;;;5.07;;
809;SDS011;387;48.772;9.186;2023-05-07T05:16:35;6.80;;;5.10;;
809;SDS011;387;48.772;9.186;2023-05-07T05:19:01;6.70;;;4.63;;
809;SDS011;387;48.772;9.186;2023-05-07T05:21:27;5.90;;;4.13;;
809;SDS011;387;48.772;9.186;2023-05-07T05:23:52;6.70;;;4.10;;
809;SDS011;387;48.772;9.186;2023-05-07T05:26:18;5.90;;;3.90;;
809;SDS011;387;48.772;9.186;2023-05-07T05:28:43;7.20;;;4.57;;
809;SDS011;387;48.772;9.186;2023-05-07T05:31:09;9.13;;;5.10;;
809;SDS011;387;48.772;9.186;2023-05-07T05:33:35;6.83;;;4.80;;
809;SDS011;387;48.772;9.186;2023-05-07T05:36:01;9.70;;;5.77;;
809;SDS011;387;48.772;9.186;2023-05-07T05:38:26;8.13;;;5.13;;
809;SDS011;387;48.772;9.186;2023-05-07T05:40:52;7.30;;;5.50;;
809;SDS011;387;48.772;9.186;2023-05-07T05:43:18;10.70;;;5.60;;
809;SDS011;387;48.772;9.186;2023-05-07T05:45:43;9.07;;;5.27;;
809;SDS011;387;48.772;9.186;2023-05-07T05:48:09;8.20;;;4.73;;
809;SDS011;387;48.772;9.186;2023-05-07T05:50:34;9.37;;;5.37;;
809;SDS011;387;48.772;9.186;2023-05-07T05:53:03;7.93;;;5.83;;
809;SDS011;387;48.772;9.186;2023-05-07T05:55:29;13.20;;;5.57;;
809;SDS011;387;48.772;9.186;2023-05-07T05:57:57;9.00;;;5.57;;
809;SDS011;387;48.772;9.186;2023-05-07T06:00:23;11.77;;;7.47;;
809;SDS011;387;48.772;9.186;2023-05-07T06:02:49;10.20;;;5.33;;
809;SDS011;387;48.772;9.186;2023-05-07T06:05:14;9.47;;;6.77;;
809;SDS011;387;48.772;9.186;2023-05-07T06:07:40;10.60;;;7.20;;
809;SDS011;387;48.772;9.186;2023-05-07T06:10:06;12.30;;;7.60;;
809;SDS011;387;48.772;9.186;2023-05-07T06:12:32;11.23;;;6.80;;
809;SDS011;387;48.772;9.186;2023-05-07T06:14:57;11.10;;;7.20;;
809;SDS011;387;48.772;9.186;2023-05-07T06:17:23;10.17;;;7.07;;
809;SDS011;387;48.772;9.186;2023-05-07T06:19:49;12.00;;;8.03;;
809;SDS011;387;48.772;9.186;2023-05-07T06:22:14;10.83;;;7.33;;
809;SDS011;387;48.772;9.186;2023-05-07T06:24:40;10.13;;;6.70;;
809;SDS011;387;48.772;9.186;2023-05-07T06:27:06;10.43;;;7.07;;
809;SDS011;387;48.772;9.186;2023-05-07T06:29:31;10.37;;;6.77;;
809;SDS011;387;48.772;9.186;2023-05-07T06:32:08;7.93;;;6.13;;
809;SDS011;387;48.772;9.186;2023-05-07T06:34:38;12.57;;;7.20;;
809;SDS011;387;48.772;9.186;2023-05-07T06:37:04;9.67;;;6.33;;
809;SDS011;387;48.772;9.186;2023-05-07T06:39:30;9.87;;;6.57;;
809;SDS011;387;48.772;9.186;2023-05-07T06:41:56;10.30;;;6.90;;
809;SDS011;387;48.772;9.186;2023-05-07T06:44:22;14.43;;;8.57;;
809;SDS011;387;48.772;9.186;2023-05-07T06:46:48;10.80;;;6.70;;
809;SDS011;387;48.772;9.186;2023-05-07T06:49:14;10.50;;;7.20;;
809;SDS011;387;48.772;9.186;2023-05-07T06:51:40;14.93;;;8.57;;
809;SDS011;387;48.772;9.186;2023-05-07T06:54:06;12.10;;;8.00;;
809;SDS011;387;48.772;9.186;2023-05-07T06:56:32;14.80;;;9.57;;
809;SDS011;387;48.772;9.186;2023-05-07T06:58:59;12.87;;;9.13;;
809;SDS011;387;48.772;9.186;2023-05-07T07:01:25;11.33;;;8.50;;
809;SDS011;387;48.772;9.186;2023-05-07T07:03:51;16.80;;;8.67;;
809;SDS011;387;48.772;9.186;2023-05-07T07:06:16;11.63;;;8.33;;
809;SDS011;387;48.772;9.186;2023-05-07T07:08:42;12.47;;;8.33;;
809;SDS011;387;48.772;9.186;2023-05-07T07:11:08;14.40;;;8.30;;
809;SDS011;387;48.772;9.186;2023-05-07T07:13:34;12.30;;;7.70;;
809;SDS011;387;48.772;9.186;2023-05-07T07:16:00;10.20;;;7.53;;
809;SDS011;387;48.772;9.186;2023-05-07T07:18:25;11.90;;;7.80;;
809;SDS011;387;48.772;9.186;2023-05-07T07:20:51;14.60;;;7.90;;
809;SDS011;387;48.772;9.186;2023-05-07T07:23:17;13.03;;;7.93;;
809;SDS011;387;48.772;9.186;2023-05-07T07:25:42;11.93;;;8.50;;
809;SDS011;387;48.772;9.186;2023-05-07T07:28:08;11.33;;;8.17;;
809;SDS011;387;48.772;9.186;2023-05-07T07:30:33;9.33;;;7.53;;
809;SDS011;387;48.772;9.186;2023-05-07T07:32:59;11.73;;;8.17;;
809;SDS011;387;48.772;9.186;2023-05-07T07:35:30;12.50;;;7.80;;
809;SDS011;387;48.772;9.186;2023-05-07T07:37:58;14.53;;;7.13;;
809;SDS011;387;48.772;9.186;2023-05-07T07:40:24;12.60;;;7.70;;
809;SDS011;387;48.772;9.186;2023-05-07T07:42:50;12.20;;;6.50;;
809;SDS011;387;48.772;9.186;2023-05-07T07:45:16;13.33;;;7.73;;
809;SDS011;387;48.772;9.186;2023-05-07T07:47:42;9.60;;;6.77;;
809;SDS011;387;48.772;9.186;2023-05-07T07:50:08;9.47;;;6.40;;
809;SDS011;387;48.772;9.186;2023-05-07T07:52:34;13.33;;;6.90;;
809;SDS011;387;48.772;9.186;2023-05-07T07:54:59;9.90;;;6.73;;
809;SDS011;387;48.772;9.186;2023-05-07T07:57:25;9.20;;;6.53;;
809;SDS011;387;48.772;9.186;2023-05-07T07:59:51;10.77;;;6.57;;
809;SDS011;387;48.772;9.186;2023-05-07T08:02:17;7.77;;;5.60;;
809;SDS011;387;48.772;9.186;2023-05-07T08:04:43;8.97;;;6.43;;
809;SDS011;387;48.772;9.186;2023-05-07T08:07:09;8.30;;;6.00;;
809;SDS011;387;48.772;9.186;2023-05-07T08:09:35;11.03;;;5.73;;
809;SDS011;387;48.772;9.186;2023-05-07T08:12:02;8.50;;;6.10;;
809;SDS011;387;48.772;9.186;2023-05-07T08:14:28;7.30;;;5.23;;
809;SDS011;387;48.772;9.186;2023-05-07T08:16:54;10.70;;;5.13;;
809;SDS011;387;48.772;9.186;2023-05-07T08:19:19;13.33;;;5.83;;
809;SDS011;387;48.772;9.186;2023-05-07T08:21:46;7.30;;;5.33;;
809;SDS011;387;48.772;9.186;2023-05-07T08:24:13;7.67;;;5.70;;
809;SDS011;387;48.772;9.186;2023-05-07T08:26:39;6.53;;;5.50;;
809;SDS011;387;48.772;9.186;2023-05-07T08:29:05;8.90;;;5.33;;
809;SDS011;387;48.772;9.186;2023-05-07T08:31:31;6.90;;;4.93;;
809;SDS011;387;48.772;9.186;2023-05-07T08:33:59;8.90;;;4.63;;
809;SDS011;387;48.772;9.186;2023-05-07T08:36:25;5.70;;;5.13;;
809;SDS011;387;48.772;9.186;2023-05-07T08:38:51;8.20;;;4.97;;
809;SDS011;387;48.772;9.186;2023-05-07T08:41:17;5.40;;;4.40;;
809;SDS011;387;48.772;9.186;2023-05-07T08:43:45;8.17;;;4.33;;
809;SDS011;387;48.772;9.186;2023-05-07T08:46:16;8.17;;;4.50;;
809;SDS011;387;48.772;9.186;2023-05-07T08:48:44;7.10;;;5.10;;
809;SDS011;387;48.772;9.186;2023-05-07T08:51:13;7.07;;;4.67;;
809;SDS011;387;48.772;9.186;2023-05-07T08:53:40;5.37;;;4.00;;
809;SDS011;387;48.772;9.186;2023-05-07T08:56:07;6.00;;;4.30;;
809;SDS011;387;48.772;9.186;2023-05-07T08:58:34;12.30;;;4.57;;
809;SDS011;387;48.772;9.186;2023-05-07T09:01:03;5.27;;;4.40;;
809;SDS011;387;48.772;9.186;2023-05-07T09:03:33;5.53;;;4.47;;
809;SDS011;387;48.772;9.186;2023-05-07T09:05:59;6.30;;;4.60;;
809;SDS011;387;48.772;9.186;2023-05-07T09:08:25;7.00;;;4.43;;
809;SDS011;387;48.772;9.186;2023-05-07T09:10:51;6.87;;;4.57;;
809;SDS011;387;48.772;9.186;2023-05-07T09:13:17;5.80;;;3.70;;
809;SDS011;387;48.772;9.186;2023-05-07T09:15:43;6.70;;;4.60;;
809;SDS011;387;48.772;9.186;2023-05-07T09:18:09;4.33;;;3.80;;
809;SDS011;387;48.772;9.186;2023-05-07T09:20:36;6.03;;;4.10;;
809;SDS011;387;48.772;9.186;2023-05-07T09:23:02;5.27;;;4.17;;
809;SDS011;387;48.772;9.186;2023-05-07T09:25:31;10.63;;;8.20;;
809;SDS011;387;48.772;9.186;2023-05-07T09:27:57;5.30;;;3.97;;
809;SDS011;387;48.772;9.186;2023-05-07T09:30:26;5.27;;;3.83;;
809;SDS011;387;48.772;9.186;2023-05-07T09:32:54;5.03;;;4.30;;
809;SDS011;387;48.772;9.186;2023-05-07T09:35:19;6.00;;;4.10;;
809;SDS011;387;48.772;9.186;2023-05-07T09:37:52;6.70;;;4.33;;
809;SDS011;387;48.772;9.186;2023-05-07T09:40:20;5.73;;;4.03;;
809;SDS011;387;48.772;9.186;2023-05-07T09:42:50;4.70;;;3.50;;
809;SDS011;387;48.772;9.186;2023-05-07T09:45:16;7.57;;;4.03;;
809;SDS011;387;48.772;9.186;2023-05-07T09:47:50;6.63;;;3.70;;
809;SDS011;387;48.772;9.186;2023-05-07T09:50:20;4.30;;;3.70;;
809;SDS011;387;48.772;9.186;2023-05-07T09:52:54;4.50;;;3.30;;
809;SDS011;387;48.772;9.186;2023-05-07T09:55:21;5.03;;;3.50;;
809;SDS011;387;48.772;9.186;2023-05-07T09:57:51;7.33;;;3.73;;
809;SDS011;387;48.772;9.186;2023-05-07T10:00:21;3.37;;;3.20;;
809;SDS011;387;48.772;9.186;2023-05-07T10:02:48;6.63;;;3.30;;
809;SDS011;387;48.772;9.186;2023-05-07T10:05:16;6.00;;;3.67;;
809;SDS011;387;48.772;9.186;2023-05-07T10:07:43;4.03;;;3.03;;
809;SDS011;387;48.772;9.186;2023-05-07T10:10:09;4.07;;;3.60;;
809;SDS011;387;48.772;9.186;2023-05-07T10:12:36;6.20;;;3.90;;
809;SDS011;387;48.772;9.186;2023-05-07T10:15:05;5.20;;;3.60;;
809;SDS011;387;48.772;9.186;2023-05-07T10:17:33;4.47;;;3.67;;
809;SDS011;387;48.772;9.186;2023-05-07T10:20:04;7.07;;;3.60;;
809;SDS011;387;48.772;9.186;2023-05-07T10:22:43;5.47;;;3.63;;
809;SDS011;387;48.772;9.186;2023-05-07T10:25:19;4.47;;;3.70;;
809;SDS011;387;48.772;9.186;2023-05-07T10:27:50;4.70;;;3.67;;
809;SDS011;387;48.772;9.186;2023-05-07T10:33:05;5.63;;;3.90;;
809;SDS011;387;48.772;9.186;2023-05-07T10:35:52;3.97;;;3.50;;
809;SDS011;387;48.772;9.186;2023-05-07T10:38:23;5.30;;;3.70;;
809;SDS011;387;48.772;9.186;2023-05-07T10:40:50;5.77;;;3.90;;
809;SDS011;387;48.772;9.186;2023-05-07T10:43:16;7.87;;;4.80;;
809;SDS011;387;48.772;9.186;2023-05-07T10:45:42;5.10;;;4.30;;
809;SDS011;387;48.772;9.186;2023-05-07T10:48:14;5.93;;;4.17;;
809;SDS011;387;48.772;9.186;2023-05-07T10:50:41;4.93;;;3.80;;
809;SDS011;387;48.772;9.186;2023-05-07T10:55:45;6.37;;;4.30;;
809;SDS011;387;48.772;9.186;2023-05-07T11:00:47;5.63;;;3.97;;
809;SDS011;387;48.772;9.186;2023-05-07T11:03:13;8.90;;;4.40;;
809;SDS011;387;48.772;9.186;2023-05-07T11:05:40;6.33;;;3.87;;
809;SDS011;387;48.772;9.186;2023-05-07T11:08:07;5.57;;;3.80;;
809;SDS011;387;48.772;9.186;2023-05-07T11:16:21;6.87;;;3.37;;
809;SDS011;387;48.772;9.186;2023-05-07T11:18:49;5.20;;;3.83;;
809;SDS011;387;48.772;9.186;2023-05-07T11:21:35;4.20;;;3.20;;
809;SDS011;387;48.772;9.186;2023-05-07T11:24:05;3.63;;;3.47;;
809;SDS011;387;48.772;9.186;2023-05-07T11:26:50;4.17;;;3.67;;
809;SDS011;387;48.772;9.186;2023-05-07T11:29:20;5.17;;;3.10;;
809;SDS011;387;48.772;9.186;2023-05-07T11:31:52;5.80;;;3.47;;
809;SDS011;387;48.772;9.186;2023-05-07T11:34:23;4.70;;;3.10;;
809;SDS011;387;48.772;9.186;2023-05-07T11:36:50;9.73;;;3.40;;
809;SDS011;387;48.772;9.186;2023-05-07T11:39:26;7.10;;;3.83;;
809;SDS011;387;48.772;9.186;2023-05-07T11:42:01;4.90;;;3.57;;
809;SDS011;387;48.772;9.186;2023-05-07T11:44:48;4.37;;;3.30;;
809;SDS011;387;48.772;9.186;2023-05-07T11:47:17;3.50;;;2.67;;
809;SDS011;387;48.772;9.186;2023-05-07T11:49:45;4.80;;;3.87;;
809;SDS011;387;48.772;9.186;2023-05-07T11:52:13;7.30;;;4.07;;
809;SDS011;387;48.772;9.186;2023-05-07T11:54:39;4.43;;;3.80;;
809;SDS011;387;48.772;9.186;2023-05-07T11:57:04;4.40;;;4.00;;
809;SDS011;387;48.772;9.186;2023-05-07T11:59:41;4.93;;;3.77;;
809;SDS011;387;48.772;9.186;2023-05-07T12:02:09;5.63;;;5.10;;
809;SDS011;387;48.772;9.186;2023-05-07T12:04:35;5.37;;;4.40;;
809;SDS011;387;48.772;9.186;2023-05-07T12:07:00;6.60;;;4.70;;
809;SDS011;387;48.772;9.186;2023-05-07T12:09:26;6.90;;;4.13;;
809;SDS011;387;48.772;9.186;2023-05-07T12:11:52;8.17;;;4.53;;
809;SDS011;387;48.772;9.186;2023-05-07T12:14:18;5.70;;;4.30;;
809;SDS011;387;48.772;9.186;2023-05-07T12:16:44;6.33;;;4.73;;
809;SDS011;387;48.772;9.186;2023-05-07T12:19:10;7.87;;;5.20;;
809;SDS011;387;48.772;9.186;2023-05-07T12:21:39;5.40;;;3.13;;
809;SDS011;387;48.772;9.186;2023-05-07T12:24:05;6.37;;;4.60;;
809;SDS011;387;48.772;9.186;2023-05-07T12:26:31;7.80;;;4.10;;
809;SDS011;387;48.772;9.186;2023-05-07T12:28:57;13.10;;;3.83;;
809;SDS011;387;48.772;9.186;2023-05-07T12:31:25;5.43;;;4.00;;
809;SDS011;387;48.772;9.186;2023-05-07T12:33:51;9.37;;;4.37;;
809;SDS011;387;48.772;9.186;2023-05-07T12:36:16;12.40;;;4.93;;
809;SDS011;387;48.772;9.186;2023-05-07T12:38:43;9.40;;;5.13;;
809;SDS011;387;48.772;9.186;2023-05-07T12:41:09;7.57;;;3.90;;
809;SDS011;387;48.772;9.186;2023-05-07T12:43:37;7.60;;;5.00;;
809;SDS011;387;48.772;9.186;2023-05-07T12:46:04;23.93;;;6.70;;
809;SDS011;387;48.772;9.186;2023-05-07T12:48:32;8.63;;;5.17;;
809;SDS011;387;48.772;9.186;2023-05-07T12:50:59;11.40;;;5.00;;
809;SDS011;387;48.772;9.186;2023-05-07T12:53:26;6.10;;;2.63;;
809;SDS011;387;48.772;9.186;2023-05-07T12:55:56;5.60;;;2.53;;
809;SDS011;387;48.772;9.186;2023-05-07T13:00:53;4.20;;;2.30;;
809;SDS011;387;48.772;9.186;2023-05-07T13:03:29;7.10;;;2.13;;
809;SDS011;387;48.772;9.186;2023-05-07T13:08:32;5.67;;;2.80;;
809;SDS011;387;48.772;9.186;2023-05-07T13:11:02;6.00;;;3.27;;
809;SDS011;387;48.772;9.186;2023-05-07T13:13:30;9.97;;;3.80;;
809;SDS011;387;48.772;9.186;2023-05-07T13:15:56;12.33;;;3.70;;
809;SDS011;387;48.772;9.186;2023-05-07T13:18:22;5.37;;;3.07;;
809;SDS011;387;48.772;9.186;2023-05-07T13:20:49;6.87;;;3.47;;
809;SDS011;387;48.772;9.186;2023-05-07T13:23:15;5.97;;;3.03;;
809;SDS011;387;48.772;9.186;2023-05-07T13:25:40;8.50;;;3.43;;
809;SDS011;387;48.772;9.186;2023-05-07T13:28:06;9.00;;;3.20;;
809;SDS011;387;48.772;9.186;2023-05-07T13:30:31;4.80;;;3.20;;
809;SDS011;387;48.772;9.186;2023-05-07T13:32:57;4.97;;;2.47;;
809;SDS011;387;48.772;9.186;2023-05-07T13:35:23;8.50;;;3.27;;
809;SDS011;387;48.772;9.186;2023-05-07T13:37:48;4.87;;;3.00;;
809;SDS011;387;48.772;9.186;2023-05-07T13:40:14;7.07;;;3.50;;
809;SDS011;387;48.772;9.186;2023-05-07T13:42:40;6.07;;;3.67;;
809;SDS011;387;48.772;9.186;2023-05-07T13:45:06;7.20;;;3.30;;
809;SDS011;387;48.772;9.186;2023-05-07T13:47:32;9.43;;;3.33;;
809;SDS011;387;48.772;9.186;2023-05-07T13:49:58;5.50;;;2.80;;
809;SDS011;387;48.772;9.186;2023-05-07T13:52:24;4.67;;;2.87;;
809;SDS011;387;48.772;9.186;2023-05-07T13:54:49;3.27;;;1.93;;
809;SDS011;387;48.772;9.186;2023-05-07T13:57:17;5.77;;;2.07;;
809;SDS011;387;48.772;9.186;2023-05-07T13:59:43;5.20;;;2.60;;
809;SDS011;387;48.772;9.186;2023-05-07T14:02:08;4.83;;;2.17;;
809;SDS011;387;48.772;9.186;2023-05-07T14:04:34;3.40;;;2.40;;
809;SDS011;387;48.772;9.186;2023-05-07T14:07:00;6.03;;;2.83;;
809;SDS011;387;48.772;9.186;2023-05-07T14:09:25;3.97;;;2.50;;
809;SDS011;387;48.772;9.186;2023-05-07T14:11:51;4.47;;;2.43;;
809;SDS011;387;48.772;9.186;2023-05-07T14:14:17;6.43;;;3.50;;
809;SDS011;387;48.772;9.186;2023-05-07T14:16:43;7.13;;;3.53;;
809;SDS011;387;48.772;9.186;2023-05-07T14:19:10;5.23;;;3.57;;
809;SDS011;387;48.772;9.186;2023-05-07T14:21:36;4.40;;;3.23;;
809;SDS011;387;48.772;9.186;2023-05-07T14:24:01;6.20;;;3.27;;
809;SDS011;387;48.772;9.186;2023-05-07T14:26:27;8.90;;;3.33;;
809;SDS011;387;48.772;9.186;2023-05-07T14:28:53;4.47;;;3.23;;
809;SDS011;387;48.772;9.186;2023-05-07T14:31:20;4.03;;;2.87;;
809;SDS011;387;48.772;9.186;2023-05-07T14:33:46;4.33;;;3.13;;
809;SDS011;387;48.772;9.186;2023-05-07T14:36:11;4.40;;;2.97;;
809;SDS011;387;48.772;9.186;2023-05-07T14:38:37;8.80;;;3.43;;
809;SDS011;387;48.772;9.186;2023-05-07T14:41:03;3.90;;;2.80;;
809;SDS011;387;48.772;9.186;2023-05-07T14:43:28;6.93;;;4.23;;
809;SDS011;387;48.772;9.186;2023-05-07T14:45:54;7.73;;;3.80;;
809;SDS011;387;48.772;9.186;2023-05-07T14:48:20;4.80;;;3.10;;
809;SDS011;387;48.772;9.186;2023-05-07T14:50:48;5.93;;;3.30;;
809;SDS011;387;48.772;9.186;2023-05-07T14:53:14;4.40;;;2.90;;
809;SDS011;387;48.772;9.186;2023-05-07T14:55:40;5.20;;;3.10;;
809;SDS011;387;48.772;9.186;2023-05-07T14:58:06;6.87;;;3.60;;
809;SDS011;387;48.772;9.186;2023-05-07T15:00:32;6.33;;;3.30;;
809;SDS011;387;48.772;9.186;2023-05-07T15:03:03;5.27;;;3.60;;
809;SDS011;387;48.772;9.186;2023-05-07T15:05:31;10.63;;;4.20;;
809;SDS011;387;48.772;9.186;2023-05-07T15:07:57;6.13;;;4.70;;
809;SDS011;387;48.772;9.186;2023-05-07T15:10:23;4.67;;;3.53;;
809;SDS011;387;48.772;9.186;2023-05-07T15:12:48;5.27;;;4.30;;
809;SDS011;387;48.772;9.186;2023-05-07T15:15:14;9.60;;;6.10;;
809;SDS011;387;48.772;9.186;2023-05-07T15:17:40;9.37;;;5.17;;
809;SDS011;387;48.772;9.186;2023-05-07T15:20:06;5.80;;;4.60;;
809;SDS011;387;48.772;9.186;2023-05-07T15:22:33;7.63;;;4.73;;
809;SDS011;387;48.772;9.186;2023-05-07T15:25:01;6.20;;;4.30;;
809;SDS011;387;48.772;9.186;2023-05-07T15:27:26;9.90;;;4.57;;
809;SDS011;387;48.772;9.186;2023-05-07T15:29:52;8.47;;;5.83;;
809;SDS011;387;48.772;9.186;2023-05-07T15:32:17;9.83;;;5.50;;
809;SDS011;387;48.772;9.186;2023-05-07T15:34:43;9.13;;;5.83;;
809;SDS011;387;48.772;9.186;2023-05-07T15:37:09;7.37;;;4.03;;
809;SDS011;387;48.772;9.186;2023-05-07T15:39:34;6.87;;;4.93;;
809;SDS011;387;48.772;9.186;2023-05-07T15:42:00;6.47;;;4.33;;
809;SDS011;387;48.772;9.186;2023-05-07T15:44:26;5.80;;;3.97;;
809;SDS011;387;48.772;9.186;2023-05-07T15:46:53;6.37;;;4.07;;
809;SDS011;387;48.772;9.186;2023-05-07T15:49:19;8.70;;;4.77;;
809;SDS011;387;48.772;9.186;2023-05-07T15:51:44;7.10;;;4.20;;
809;SDS011;387;48.772;9.186;2023-05-07T15:54:10;5.70;;;4.30;;
809;SDS011;387;48.772;9.186;2023-05-07T15:56:36;7.10;;;3.80;;
809;SDS011;387;48.772;9.186;2023-05-07T15:59:02;7.20;;;4.47;;